Time;durP1;ratioP1;P1;durP2;ratioP2;P2;SDS_P1;SDS_P2;PMS_P1;PMS_P2;Temp;Humidity;BMP_temperature;BMP_pressure;BME280_temperature;BME280_humidity;BME280_pressure;Samples;Min_cycle;Max_cycle;Signal;HPM_P1;HPM_P2
2021/08/23 00:00:48;;;;;;;5.70;5.15;;;19.10;91.90;;;;;;5073699;28;20090;-79
2021/08/23 00:03:13;;;;;;;6.13;5.32;;;19.10;91.80;;;;;;5074235;28;20367;-79
2021/08/23 00:05:39;;;;;;;8.98;7.10;;;19.10;91.90;;;;;;5056087;28;20512;-79
2021/08/23 00:08:06;;;;;;;8.07;7.07;;;19.10;91.90;;;;;;5056005;28;20112;-79
2021/08/23 00:10:32;;;;;;;8.25;7.38;;;19.10;92.30;;;;;;5073374;28;20056;-79
2021/08/23 00:12:57;;;;;;;6.22;5.63;;;19.10;92.10;;;;;;5055409;28;21564;-80
2021/08/23 00:15:23;;;;;;;9.93;7.55;;;19.10;92.10;;;;;;5056118;28;20052;-80
2021/08/23 00:17:49;;;;;;;8.20;6.93;;;19.10;92.10;;;;;;5055646;28;20477;-80
2021/08/23 00:20:16;;;;;;;10.40;7.57;;;19.10;92.10;;;;;;5072627;28;20040;-80
2021/08/23 00:22:51;;;;;;;8.05;7.35;;;19.10;92.20;;;;;;5072406;28;20103;-80
2021/08/23 00:25:18;;;;;;;8.73;7.03;;;19.10;92.20;;;;;;5054589;28;20033;-79
2021/08/23 00:27:44;;;;;;;8.57;7.38;;;19.10;92.20;;;;;;5072091;28;20047;-80
2021/08/23 00:30:13;;;;;;;8.35;7.55;;;19.10;92.20;;;;;;5054260;28;20040;-80
2021/08/23 00:32:39;;;;;;;12.80;9.02;;;19.10;92.30;;;;;;5072284;28;20131;-80
2021/08/23 00:35:05;;;;;;;8.38;7.57;;;19.10;92.30;;;;;;5055185;28;20053;-80
2021/08/23 00:37:31;;;;;;;15.60;9.63;;;19.10;92.30;;;;;;5072986;28;20374;-80
2021/08/23 00:39:56;;;;;;;10.27;8.95;;;19.10;92.30;;;;;;5055336;28;20056;-80
2021/08/23 00:42:22;;;;;;;10.15;8.93;;;19.10;92.30;;;;;;5055391;28;20032;-80
2021/08/23 00:44:49;;;;;;;9.75;7.90;;;19.10;92.30;;;;;;5073042;28;20044;-80
2021/08/23 00:47:14;;;;;;;9.75;7.75;;;19.10;92.30;;;;;;5073232;28;20020;-80
2021/08/23 00:49:40;;;;;;;10.85;9.20;;;19.10;92.40;;;;;;5038861;28;20492;-80
2021/08/23 00:52:08;;;;;;;11.70;9.00;;;19.10;92.40;;;;;;5073263;28;20021;-80
2021/08/23 00:54:34;;;;;;;12.05;9.70;;;19.10;92.40;;;;;;5038703;28;20066;-80
2021/08/23 00:57:01;;;;;;;9.43;8.38;;;19.10;92.70;;;;;;5055202;28;20028;-80
2021/08/23 00:59:28;;;;;;;9.43;8.43;;;19.10;92.40;;;;;;5072982;28;20052;-80
2021/08/23 01:02:16;;;;;;;11.75;9.63;;;19.10;92.40;;;;;;5038811;28;20067;-80
2021/08/23 01:05:16;;;;;;;11.48;10.05;;;19.10;92.50;;;;;;5077181;28;20028;-80
2021/08/23 01:08:18;;;;;;;11.95;8.98;;;19.10;92.70;;;;;;5076891;28;20108;-80
2021/08/23 01:10:50;;;;;;;14.60;10.05;;;19.10;92.50;;;;;;5054767;28;20044;-80
2021/08/23 01:13:16;;;;;;;11.88;8.60;;;19.10;92.40;;;;;;5076785;28;20078;-80
2021/08/23 01:15:42;;;;;;;16.90;11.02;;;19.10;92.40;;;;;;5059143;28;20389;-80
2021/08/23 01:18:08;;;;;;;15.07;11.90;;;19.10;92.40;;;;;;5042310;28;20055;-80
2021/08/23 01:20:41;;;;;;;17.13;11.68;;;19.10;92.50;;;;;;5076815;28;20465;-80
2021/08/23 01:23:10;;;;;;;11.23;10.10;;;19.10;92.60;;;;;;5076935;28;20064;-80
2021/08/23 01:25:35;;;;;;;;;;;19.10;92.60;;;;;;5077028;28;20059;-80
2021/08/23 01:28:29;;;;;;;13.68;9.23;;;19.10;92.50;;;;;;5076787;28;19905;-80
2021/08/23 01:31:21;;;;;;;11.88;9.52;;;19.00;92.60;;;;;;5076822;28;20110;-80
2021/08/23 01:33:48;;;;;;;13.65;11.20;;;19.00;92.60;;;;;;5058338;28;20052;-80
2021/08/23 01:36:14;;;;;;;11.05;9.85;;;19.10;92.50;;;;;;5058883;28;20054;-80
2021/08/23 01:38:39;;;;;;;13.95;10.30;;;19.10;92.60;;;;;;5076432;28;20042;-80
2021/08/23 01:41:08;;;;;;;16.08;12.07;;;19.10;92.60;;;;;;5076663;28;20065;-80
2021/08/23 01:43:35;;;;;;;17.23;12.32;;;19.10;92.60;;;;;;5042167;28;20128;-79
2021/08/23 01:46:01;;;;;;;12.27;10.20;;;19.00;92.60;;;;;;5076526;28;20393;-80
2021/08/23 01:48:26;;;;;;;13.52;11.05;;;19.00;92.60;;;;;;5058368;28;20029;-80
2021/08/23 01:50:52;;;;;;;13.27;11.98;;;19.00;92.70;;;;;;5058516;28;20052;-80
2021/08/23 01:53:18;;;;;;;16.17;13.50;;;19.00;92.70;;;;;;5076295;28;20032;-80
2021/08/23 01:55:44;;;;;;;16.80;12.52;;;19.00;92.70;;;;;;5076347;28;20024;-80
2021/08/23 01:58:10;;;;;;;17.45;13.15;;;19.00;92.70;;;;;;5076140;28;20108;-80
2021/08/23 02:00:36;;;;;;;14.02;12.35;;;19.00;92.80;;;;;;5058238;28;20385;-80
2021/08/23 02:03:02;;;;;;;13.63;12.25;;;19.00;92.80;;;;;;5076077;28;20543;-80
2021/08/23 02:05:28;;;;;;;14.88;12.70;;;19.00;92.90;;;;;;5058598;28;20037;-80
2021/08/23 02:07:57;;;;;;;12.50;10.23;;;19.00;92.90;;;;;;5058288;28;20073;-80
2021/08/23 02:10:24;;;;;;;15.75;9.52;;;19.10;93.00;;;;;;5058262;28;20074;-80
2021/08/23 02:12:49;;;;;;;12.88;11.45;;;19.00;92.90;;;;;;5056059;28;20049;-80
2021/08/23 02:15:15;;;;;;;12.48;10.52;;;19.10;92.90;;;;;;5054614;28;20423;-80
2021/08/23 02:17:40;;;;;;;18.75;13.60;;;19.10;92.90;;;;;;5054642;28;20025;-80
2021/08/23 02:20:08;;;;;;;14.05;10.75;;;19.10;92.90;;;;;;5057776;28;20385;-80
2021/08/23 02:22:34;;;;;;;15.63;11.75;;;19.00;92.90;;;;;;5057934;28;20040;-80
2021/08/23 02:25:00;;;;;;;17.13;14.50;;;19.00;92.90;;;;;;5075749;28;20428;-80
2021/08/23 02:27:25;;;;;;;15.73;13.30;;;19.00;93.00;;;;;;5075999;28;20052;-80
2021/08/23 02:29:51;;;;;;;17.35;12.95;;;19.00;93.00;;;;;;5057774;28;20021;-80
2021/08/23 02:32:16;;;;;;;28.27;19.60;;;19.00;93.10;;;;;;5057966;28;20048;-80
2021/08/23 02:34:42;;;;;;;17.42;13.45;;;18.90;93.10;;;;;;5075077;28;20049;-80
2021/08/23 02:37:08;;;;;;;20.20;15.90;;;18.90;93.40;;;;;;5057398;28;20036;-80
2021/08/23 02:39:33;;;;;;;15.60;13.40;;;18.90;93.30;;;;;;5039532;28;20016;-80
2021/08/23 02:41:59;;;;;;;14.27;12.88;;;18.90;93.20;;;;;;5056820;28;20033;-80
2021/08/23 02:44:24;;;;;;;18.30;14.93;;;18.90;93.30;;;;;;5075179;28;20554;-80
2021/08/23 02:46:51;;;;;;;19.23;13.63;;;18.90;93.20;;;;;;5057299;28;20046;-80
2021/08/23 02:49:17;;;;;;;14.43;12.90;;;18.80;93.20;;;;;;5057205;28;20055;-80
2021/08/23 02:51:46;;;;;;;18.88;14.48;;;18.80;93.20;;;;;;5040680;28;20423;-80
2021/08/23 02:54:12;;;;;;;14.93;13.27;;;18.80;93.20;;;;;;5057615;28;20140;-80
2021/08/23 02:56:38;;;;;;;19.33;14.15;;;18.70;93.30;;;;;;5057545;28;20051;-80
2021/08/23 02:59:04;;;;;;;18.42;13.85;;;18.70;93.40;;;;;;5057180;28;20481;-80
2021/08/23 03:01:29;;;;;;;15.23;13.43;;;18.70;93.40;;;;;;5057369;28;20025;-80
2021/08/23 03:03:55;;;;;;;17.50;15.48;;;18.70;93.40;;;;;;5074942;28;20466;-80
2021/08/23 03:06:21;;;;;;;17.75;15.73;;;18.70;93.40;;;;;;5057108;28;20029;-80
2021/08/23 03:08:46;;;;;;;20.48;17.45;;;18.60;93.40;;;;;;5056986;28;20036;-80
2021/08/23 03:11:14;;;;;;;17.88;15.98;;;18.60;93.50;;;;;;5040287;28;20384;-80
2021/08/23 03:13:42;;;;;;;18.27;14.18;;;18.60;93.50;;;;;;5074877;28;20043;-80
2021/08/23 03:16:09;;;;;;;24.48;20.30;;;18.60;93.60;;;;;;5074763;28;20477;-80
2021/08/23 03:18:34;;;;;;;18.95;16.77;;;18.60;93.70;;;;;;5074868;28;20028;-80
2021/08/23 03:21:01;;;;;;;26.85;21.27;;;18.60;93.70;;;;;;5074817;28;20442;-80
2021/08/23 03:23:27;;;;;;;26.60;20.63;;;18.50;93.70;;;;;;5074632;28;20048;-80
2021/08/23 03:25:53;;;;;;;29.60;21.27;;;18.50;93.70;;;;;;5056278;28;20521;-80
2021/08/23 03:28:18;;;;;;;31.55;22.42;;;18.50;93.70;;;;;;5074688;28;20051;-80
2021/08/23 03:30:44;;;;;;;25.95;19.90;;;18.50;93.70;;;;;;5074563;28;20036;-80
2021/08/23 03:33:11;;;;;;;31.35;24.25;;;18.50;93.70;;;;;;5056555;28;20111;-80
2021/08/23 03:35:36;;;;;;;28.40;22.85;;;18.50;93.70;;;;;;5073956;28;20040;-80
2021/08/23 03:38:02;;;;;;;27.13;21.17;;;18.40;93.60;;;;;;5039732;28;20119;-80
2021/08/23 03:40:29;;;;;;;29.48;21.70;;;18.40;93.70;;;;;;5073699;28;20063;-80
2021/08/23 03:42:55;;;;;;;30.67;23.63;;;18.40;93.70;;;;;;5073431;28;20042;-80
2021/08/23 03:45:21;;;;;;;30.25;22.00;;;18.40;93.70;;;;;;5056014;28;20033;-81
2021/08/23 03:47:46;;;;;;;27.25;21.77;;;18.30;93.60;;;;;;5074036;28;20396;-80
2021/08/23 03:50:12;;;;;;;26.95;21.15;;;18.30;93.60;;;;;;5074209;28;20082;-80
2021/08/23 03:52:38;;;;;;;26.02;21.52;;;18.30;93.70;;;;;;5056097;28;20029;-80
2021/08/23 03:55:07;;;;;;;32.13;22.75;;;18.20;93.70;;;;;;5056225;28;20063;-80
2021/08/23 03:57:35;;;;;;;26.23;21.38;;;18.20;93.70;;;;;;5073825;28;20087;-80
2021/08/23 04:00:03;;;;;;;29.45;22.33;;;18.20;93.60;;;;;;5073876;28;20027;-80
2021/08/23 04:02:29;;;;;;;25.40;19.17;;;18.20;93.60;;;;;;5073846;28;20503;-80
2021/08/23 04:04:55;;;;;;;24.80;19.17;;;18.20;93.70;;;;;;5055768;28;20029;-80
2021/08/23 04:07:20;;;;;;;27.27;20.63;;;18.20;93.70;;;;;;5073804;28;20054;-80
2021/08/23 04:09:46;;;;;;;21.75;17.95;;;18.10;93.70;;;;;;5073395;28;20052;-80
2021/08/23 04:12:11;;;;;;;30.98;21.10;;;18.10;93.70;;;;;;5039442;28;20135;-80
2021/08/23 04:14:37;;;;;;;31.70;22.65;;;18.10;93.60;;;;;;5038879;28;20025;-80
2021/08/23 04:17:03;;;;;;;27.25;20.58;;;18.10;93.60;;;;;;5055902;28;20385;-80
2021/08/23 04:19:29;;;;;;;22.40;18.25;;;18.00;93.60;;;;;;5055665;28;20021;-80
2021/08/23 04:21:55;;;;;;;30.50;21.17;;;18.00;93.70;;;;;;5055589;28;20029;-80
2021/08/23 04:24:21;;;;;;;29.17;21.23;;;18.00;93.70;;;;;;5073422;28;20059;-80
2021/08/23 04:26:46;;;;;;;28.30;20.75;;;18.00;93.70;;;;;;5055638;28;20039;-80
2021/08/23 04:29:12;;;;;;;25.35;20.67;;;18.00;93.70;;;;;;5055689;28;20048;-80
2021/08/23 04:31:38;;;;;;;26.67;19.55;;;18.00;93.70;;;;;;5055653;28;20082;-80
2021/08/23 04:34:03;;;;;;;30.30;21.73;;;18.00;93.80;;;;;;5055113;28;20085;-80
2021/08/23 04:36:29;;;;;;;27.25;20.58;;;18.00;93.80;;;;;;5073537;28;20567;-80
2021/08/23 04:38:55;;;;;;;27.60;20.73;;;18.00;93.80;;;;;;5055169;28;20020;-80
2021/08/23 04:41:20;;;;;;;28.25;21.98;;;18.00;93.80;;;;;;5073247;28;20033;-80
2021/08/23 04:43:46;;;;;;;29.40;20.50;;;18.00;93.80;;;;;;5073148;28;20032;-80
2021/08/23 04:46:12;;;;;;;25.65;19.27;;;18.00;93.80;;;;;;5072054;28;20028;-80
2021/08/23 04:48:37;;;;;;;27.35;22.30;;;18.00;93.80;;;;;;5071951;28;20033;-80
2021/08/23 04:51:03;;;;;;;25.63;20.50;;;18.10;93.80;;;;;;5055433;28;20033;-80
2021/08/23 04:53:29;;;;;;;30.88;22.95;;;18.10;93.80;;;;;;5071755;28;20477;-80
2021/08/23 04:55:56;;;;;;;27.58;20.38;;;18.10;93.70;;;;;;5072226;28;20108;-80
2021/08/23 04:58:22;;;;;;;32.40;21.17;;;18.10;93.70;;;;;;5057680;28;20024;-80
2021/08/23 05:00:48;;;;;;;30.52;22.02;;;18.10;93.70;;;;;;5073088;28;20021;-81
2021/08/23 05:03:14;;;;;;;27.98;22.85;;;18.10;93.70;;;;;;5073091;28;20081;-81
2021/08/23 05:05:41;;;;;;;28.40;21.92;;;18.10;93.70;;;;;;5055395;28;20044;-81
2021/08/23 05:08:07;;;;;;;22.77;17.98;;;18.10;93.70;;;;;;5073130;28;20035;-81
2021/08/23 05:10:33;;;;;;;29.45;22.15;;;18.00;93.70;;;;;;5072808;28;20477;-81
2021/08/23 05:12:59;;;;;;;29.45;22.73;;;18.00;93.70;;;;;;5055290;28;20032;-81
2021/08/23 05:15:25;;;;;;;33.85;24.20;;;18.00;93.70;;;;;;5078484;28;20021;-81
2021/08/23 05:17:51;;;;;;;27.33;22.73;;;18.00;93.70;;;;;;5055155;28;20024;-81
2021/08/23 05:20:17;;;;;;;34.17;23.88;;;18.00;93.80;;;;;;5055311;28;20481;-81
2021/08/23 05:22:43;;;;;;;33.63;24.13;;;18.00;93.80;;;;;;5055214;28;20510;-81
2021/08/23 05:25:09;;;;;;;29.20;22.13;;;18.00;93.80;;;;;;5058521;28;20053;-81
2021/08/23 05:27:35;;;;;;;26.80;21.30;;;18.00;93.80;;;;;;5072816;28;20465;-81
2021/08/23 05:30:03;;;;;;;40.22;28.20;;;18.10;93.80;;;;;;5071658;28;20020;-81
2021/08/23 05:32:29;;;;;;;33.95;25.58;;;18.00;93.90;;;;;;5072858;28;20032;-81
2021/08/23 05:34:55;;;;;;;50.08;30.45;;;18.10;93.90;;;;;;5072567;28;20047;-81
2021/08/23 05:37:20;;;;;;;35.35;26.45;;;18.10;93.80;;;;;;5054750;28;20127;-80
2021/08/23 05:39:46;;;;;;;38.47;25.88;;;18.10;93.90;;;;;;5036752;28;20139;-81
2021/08/23 05:42:13;;;;;;;40.65;29.10;;;18.10;93.90;;;;;;5053896;28;20024;-82
2021/08/23 05:44:39;;;;;;;50.60;33.58;;;18.10;93.80;;;;;;5036513;28;20029;-81
2021/08/23 05:47:05;;;;;;;44.22;32.08;;;18.10;93.80;;;;;;5036481;28;20036;-81
2021/08/23 05:49:31;;;;;;;55.38;33.72;;;18.10;93.80;;;;;;5073102;28;20029;-81
2021/08/23 05:51:56;;;;;;;48.42;32.83;;;18.10;93.90;;;;;;5058216;28;20025;-81
2021/08/23 05:54:22;;;;;;;54.00;35.42;;;18.10;94.00;;;;;;5076172;28;20820;-82
2021/08/23 05:56:48;;;;;;;39.42;27.25;;;18.10;93.90;;;;;;5058435;28;20032;-82
2021/08/23 05:59:13;;;;;;;48.15;33.58;;;18.10;93.90;;;;;;5076260;28;20028;-82
2021/08/23 06:01:39;;;;;;;62.25;36.90;;;18.10;94.00;;;;;;5041883;28;20436;-81
2021/08/23 06:04:04;;;;;;;54.28;35.25;;;18.10;94.00;;;;;;5058342;28;20384;-81
2021/08/23 06:06:32;;;;;;;57.33;36.70;;;18.10;94.00;;;;;;5076261;28;20070;-81
2021/08/23 06:08:57;;;;;;;60.75;38.75;;;18.10;94.10;;;;;;5058556;28;20481;-81
2021/08/23 06:11:23;;;;;;;62.78;37.28;;;18.10;94.00;;;;;;5076009;28;20120;-81
2021/08/23 06:13:49;;;;;;;67.35;37.05;;;18.10;94.00;;;;;;5058085;28;20029;-81
2021/08/23 06:16:14;;;;;;;58.03;36.33;;;18.10;94.00;;;;;;5058064;28;20029;-82
2021/08/23 06:18:40;;;;;;;53.13;36.13;;;18.10;94.00;;;;;;5075964;28;20039;-81
2021/08/23 06:21:09;;;;;;;63.08;38.58;;;18.10;94.00;;;;;;5058043;28;20028;-81
2021/08/23 06:23:34;;;;;;;57.63;35.05;;;18.10;94.00;;;;;;5075865;28;20062;-81
2021/08/23 06:26:00;;;;;;;49.17;33.55;;;18.10;94.00;;;;;;5057894;28;20408;-81
2021/08/23 06:28:26;;;;;;;56.38;36.58;;;18.00;94.00;;;;;;5075764;28;20037;-82
2021/08/23 06:30:51;;;;;;;54.58;35.72;;;18.10;94.40;;;;;;5057862;28;20029;-82
2021/08/23 06:33:17;;;;;;;49.08;34.90;;;18.10;94.10;;;;;;5057754;28;20444;-81
2021/08/23 06:35:44;;;;;;;57.15;35.35;;;18.00;94.10;;;;;;5075509;28;20056;-81
2021/08/23 06:38:10;;;;;;;58.65;36.58;;;18.00;94.10;;;;;;5075604;28;20527;-82
2021/08/23 06:40:36;;;;;;;63.33;37.67;;;18.00;94.10;;;;;;5040936;28;20025;-81
2021/08/23 06:43:02;;;;;;;53.80;35.35;;;18.10;94.20;;;;;;5057272;28;20040;-82
2021/08/23 06:45:27;;;;;;;55.40;33.08;;;18.10;94.20;;;;;;5040623;28;20618;-81
2021/08/23 06:47:53;;;;;;;55.25;34.40;;;18.10;94.20;;;;;;5075098;28;20038;-82
2021/08/23 06:50:19;;;;;;;50.30;34.72;;;18.20;94.20;;;;;;5057223;28;20028;-82
2021/08/23 06:52:44;;;;;;;49.45;33.90;;;18.20;94.40;;;;;;5040593;28;20063;-81
2021/08/23 06:55:10;;;;;;;50.28;34.15;;;18.30;94.00;;;;;;5075315;28;20060;-81
2021/08/23 06:57:36;;;;;;;47.60;33.10;;;18.30;94.00;;;;;;5074878;28;20059;-81
2021/08/23 07:00:02;;;;;;;47.67;32.90;;;18.30;94.00;;;;;;5074546;28;20430;-82
2021/08/23 07:02:28;;;;;;;47.65;32.60;;;18.40;94.00;;;;;;5056801;28;20052;-81
2021/08/23 07:04:53;;;;;;;45.50;32.25;;;18.40;93.90;;;;;;5057014;28;20488;-81
2021/08/23 07:07:19;;;;;;;46.72;32.60;;;18.40;93.90;;;;;;5057006;28;20032;-82
2021/08/23 07:09:45;;;;;;;53.15;33.13;;;18.40;93.90;;;;;;5040379;28;20674;-82
2021/08/23 07:12:11;;;;;;;44.25;30.92;;;18.40;93.90;;;;;;5074822;28;20495;-82
2021/08/23 07:14:37;;;;;;;43.95;30.38;;;18.40;93.90;;;;;;5056922;28;20033;-82
2021/08/23 07:17:04;;;;;;;46.13;31.90;;;18.30;93.90;;;;;;5056890;28;20074;-82
2021/08/23 07:19:30;;;;;;;41.05;30.05;;;18.30;93.90;;;;;;5074749;28;20714;-81
2021/08/23 07:21:55;;;;;;;43.67;30.05;;;18.30;93.90;;;;;;5056951;28;20025;-82
2021/08/23 07:24:21;;;;;;;40.42;29.42;;;18.30;93.90;;;;;;5074744;28;20082;-82
2021/08/23 07:26:46;;;;;;;45.95;30.23;;;18.40;93.90;;;;;;5074433;28;20036;-81
2021/08/23 07:29:15;;;;;;;45.67;29.98;;;18.40;93.80;;;;;;5074581;28;20489;-81
2021/08/23 07:31:41;;;;;;;44.00;29.35;;;18.30;93.70;;;;;;5074178;28;20025;-81
2021/08/23 07:34:07;;;;;;;39.55;27.42;;;18.30;93.80;;;;;;5074272;28;20056;-81
2021/08/23 07:36:33;;;;;;;40.42;27.92;;;18.40;93.80;;;;;;5074450;28;20063;-82
2021/08/23 07:38:59;;;;;;;44.45;28.23;;;18.50;93.80;;;;;;5074371;28;20048;-81
2021/08/23 07:41:25;;;;;;;40.60;27.65;;;18.60;93.80;;;;;;5039693;28;20035;-82
2021/08/23 07:43:50;;;;;;;40.88;26.42;;;18.70;93.50;;;;;;5056425;28;20127;-81
2021/08/23 07:46:16;;;;;;;36.05;24.80;;;18.70;93.30;;;;;;5074165;28;20043;-81
2021/08/23 07:48:44;;;;;;;40.58;23.58;;;18.80;93.40;;;;;;5056191;28;20533;-82
2021/08/23 07:51:11;;;;;;;38.47;26.00;;;18.80;93.30;;;;;;5055959;28;20032;-81
2021/08/23 07:53:37;;;;;;;40.25;25.02;;;18.80;93.20;;;;;;5055552;28;20283;-81
2021/08/23 07:56:03;;;;;;;37.20;23.30;;;18.80;93.20;;;;;;5056041;28;20158;-82
2021/08/23 07:58:29;;;;;;;35.90;23.02;;;18.80;93.20;;;;;;5055662;28;20108;-82
2021/08/23 08:00:54;;;;;;;40.28;23.83;;;18.80;93.00;;;;;;5072707;28;20033;-81
2021/08/23 08:03:20;;;;;;;29.85;20.58;;;18.80;93.10;;;;;;5055025;28;20146;-81
2021/08/23 08:05:45;;;;;;;34.08;20.70;;;18.80;92.90;;;;;;5072817;28;20044;-82
2021/08/23 08:08:11;;;;;;;30.63;21.05;;;18.90;92.70;;;;;;5055793;28;20036;-81
2021/08/23 08:10:37;;;;;;;29.55;19.80;;;18.90;92.50;;;;;;5055830;28;20068;-81
2021/08/23 08:13:03;;;;;;;29.33;19.33;;;18.90;92.70;;;;;;5055724;28;20025;-82
2021/08/23 08:15:29;;;;;;;26.33;18.73;;;19.00;92.60;;;;;;5055812;28;20025;-81
2021/08/23 08:17:55;;;;;;;30.33;20.05;;;19.00;92.40;;;;;;5038955;28;20029;-81
2021/08/23 08:20:21;;;;;;;27.58;18.23;;;18.90;92.20;;;;;;5055855;28;20029;-82
2021/08/23 08:22:47;;;;;;;27.65;17.88;;;18.90;92.20;;;;;;5055627;28;20056;-82
2021/08/23 08:25:13;;;;;;;27.70;18.13;;;18.90;92.00;;;;;;5073719;28;20059;-81
2021/08/23 08:27:39;;;;;;;26.85;18.35;;;19.00;92.10;;;;;;5073444;28;20074;-81
2021/08/23 08:30:06;;;;;;;28.38;18.65;;;18.90;92.00;;;;;;5073294;28;20016;-81
2021/08/23 08:32:32;;;;;;;29.30;19.05;;;18.90;92.00;;;;;;5055405;28;20024;-81
2021/08/23 08:34:57;;;;;;;25.77;18.55;;;18.90;92.20;;;;;;5055205;28;20396;-81
2021/08/23 08:37:23;;;;;;;29.95;18.23;;;18.90;92.40;;;;;;5073266;28;20029;-82
2021/08/23 08:39:49;;;;;;;27.20;17.20;;;18.80;92.20;;;;;;5055253;28;20071;-81
2021/08/23 08:42:17;;;;;;;27.23;17.83;;;18.80;92.20;;;;;;5055257;28;20025;-82
2021/08/23 08:44:42;;;;;;;26.33;16.90;;;18.90;92.30;;;;;;5073317;28;20024;-81
2021/08/23 08:47:10;;;;;;;24.52;16.63;;;18.90;92.10;;;;;;5038463;28;20028;-82
2021/08/23 08:49:37;;;;;;;26.20;17.70;;;18.90;91.90;;;;;;5055557;28;20029;-81
2021/08/23 08:52:04;;;;;;;24.52;16.90;;;18.90;92.00;;;;;;5073254;28;20025;-81
2021/08/23 08:54:30;;;;;;;25.30;16.48;;;18.90;91.50;;;;;;5072791;28;20065;-81
2021/08/23 08:56:56;;;;;;;21.77;15.90;;;18.90;91.40;;;;;;5054255;28;20021;-82
2021/08/23 08:59:21;;;;;;;21.02;15.18;;;19.00;91.60;;;;;;5054137;28;20032;-82
2021/08/23 09:01:48;;;;;;;22.33;16.40;;;19.10;91.80;;;;;;5037307;28;20036;-81
2021/08/23 09:04:14;;;;;;;20.73;15.13;;;19.30;91.80;;;;;;5072340;28;20029;-81
2021/08/23 09:06:41;;;;;;;23.05;14.98;;;19.50;91.30;;;;;;5071653;28;20115;-81
2021/08/23 09:09:12;;;;;;;19.88;14.15;;;19.70;91.00;;;;;;5054927;28;20035;-82
2021/08/23 09:11:40;;;;;;;20.30;15.52;;;19.90;90.70;;;;;;5054808;28;20138;-82
2021/08/23 09:14:07;;;;;;;25.35;18.30;;;20.00;90.50;;;;;;5072778;28;20427;-82
2021/08/23 09:16:36;;;;;;;22.38;17.15;;;20.00;90.50;;;;;;5072265;28;20380;-81
2021/08/23 09:19:02;;;;;;;24.92;18.20;;;19.90;90.50;;;;;;5072649;28;20029;-81
2021/08/23 09:21:33;;;;;;;25.13;17.30;;;19.90;90.50;;;;;;5053890;28;20072;-82
2021/08/23 09:23:59;;;;;;;21.45;16.50;;;19.90;90.60;;;;;;5061842;28;20028;-81
2021/08/23 09:26:33;;;;;;;20.40;15.77;;;20.10;90.30;;;;;;5076345;28;20100;-81
2021/08/23 09:29:04;;;;;;;18.73;15.60;;;20.30;89.50;;;;;;5075666;28;20035;-82
2021/08/23 09:31:35;;;;;;;18.85;16.30;;;20.40;88.10;;;;;;5075707;28;20035;-82
2021/08/23 09:34:06;;;;;;;18.10;14.73;;;20.40;86.90;;;;;;5075640;28;20070;-82
2021/08/23 09:36:32;;;;;;;20.20;15.63;;;20.40;87.60;;;;;;5075786;28;20043;-81
2021/08/23 09:39:06;;;;;;;20.95;14.98;;;20.30;88.50;;;;;;5057601;28;20021;-82
2021/08/23 09:41:34;;;;;;;19.58;15.35;;;20.40;88.50;;;;;;5057808;28;20550;-82
2021/08/23 09:44:05;;;;;;;17.50;14.77;;;20.50;88.80;;;;;;5075507;28;20036;-82
2021/08/23 09:46:34;;;;;;;16.45;14.25;;;20.70;88.50;;;;;;5075066;28;20016;-82
2021/08/23 09:49:03;;;;;;;15.27;12.85;;;20.70;87.20;;;;;;5075869;28;20028;-82
2021/08/23 09:51:31;;;;;;;15.32;13.23;;;20.80;86.50;;;;;;5041959;28;20145;-81
2021/08/23 09:54:05;;;;;;;16.05;13.60;;;20.80;86.50;;;;;;5075967;28;20567;-81
2021/08/23 09:56:33;;;;;;;16.70;14.18;;;20.60;86.20;;;;;;5041998;28;20037;-81
2021/08/23 09:59:01;;;;;;;21.67;15.90;;;20.50;86.10;;;;;;5058219;28;20089;-82
2021/08/23 10:01:33;;;;;;;17.55;14.38;;;20.40;86.70;;;;;;5076261;28;20032;-82
2021/08/23 10:04:06;;;;;;;16.02;14.30;;;20.20;87.20;;;;;;5076272;28;20039;-81
2021/08/23 10:06:37;;;;;;;17.80;13.95;;;20.10;86.60;;;;;;5059191;28;20025;-81
2021/08/23 10:09:04;;;;;;;16.73;12.30;;;20.00;88.10;;;;;;5076459;28;20050;-81
2021/08/23 10:11:35;;;;;;;15.25;12.20;;;20.00;87.60;;;;;;5057858;28;20044;-81
2021/08/23 10:14:01;;;;;;;13.05;11.43;;;19.90;87.50;;;;;;5075997;28;20040;-82
2021/08/23 10:16:31;;;;;;;12.88;11.57;;;19.90;87.70;;;;;;5058069;28;20035;-81
2021/08/23 10:18:58;;;;;;;12.95;10.75;;;19.90;87.60;;;;;;5075780;28;20461;-81
2021/08/23 10:21:25;;;;;;;15.35;10.68;;;19.90;88.10;;;;;;5075588;28;20025;-81
2021/08/23 10:23:53;;;;;;;12.52;10.18;;;19.90;87.30;;;;;;5075753;28;20024;-81
2021/08/23 10:26:19;;;;;;;13.05;10.48;;;19.90;87.00;;;;;;5075537;28;20043;-81
2021/08/23 10:28:48;;;;;;;12.98;10.98;;;19.90;86.60;;;;;;5058000;28;20028;-81
2021/08/23 10:31:15;;;;;;;;;;;20.00;86.50;;;;;;5075032;28;20040;-81
2021/08/23 10:33:42;;;;;;;12.70;9.98;;;19.90;85.40;;;;;;5075408;28;19942;-81
2021/08/23 10:36:12;;;;;;;16.70;10.27;;;19.80;86.00;;;;;;5056085;28;20045;-81
2021/08/23 10:38:41;;;;;;;12.27;9.98;;;19.80;86.20;;;;;;5075670;28;20032;-81
2021/08/23 10:41:09;;;;;;;11.93;9.18;;;19.90;86.60;;;;;;5075542;28;20025;-80
2021/08/23 10:43:45;;;;;;;13.65;9.45;;;20.00;86.20;;;;;;5075602;28;20056;-81
2021/08/23 10:46:31;;;;;;;13.13;9.40;;;20.10;86.20;;;;;;5075502;28;20028;-81
2021/08/23 10:48:59;;;;;;;12.07;8.77;;;20.30;84.90;;;;;;5075426;28;20031;-81
2021/08/23 10:51:33;;;;;;;13.45;8.95;;;20.30;84.70;;;;;;5075137;28;20029;-81
2021/08/23 10:54:00;;;;;;;14.02;9.02;;;20.20;85.00;;;;;;5075197;28;20025;-80
2021/08/23 10:56:36;;;;;;;10.88;8.55;;;20.20;84.70;;;;;;5057484;28;20028;-82
2021/08/23 10:59:12;;;;;;;11.55;9.10;;;20.20;85.00;;;;;;5075095;28;20477;-81
2021/08/23 11:01:38;;;;;;;10.70;7.80;;;20.30;84.80;;;;;;5075238;28;20099;-81
2021/08/23 11:04:06;;;;;;;14.48;8.40;;;20.30;84.90;;;;;;5057559;28;20048;-81
2021/08/23 11:06:35;;;;;;;10.23;7.50;;;20.30;85.30;;;;;;5075167;28;20358;-82
2021/08/23 11:09:12;;;;;;;15.32;8.60;;;20.40;85.50;;;;;;5074997;28;20043;-81
2021/08/23 11:11:39;;;;;;;12.27;7.82;;;20.50;84.80;;;;;;5074890;28;20025;-81
2021/08/23 11:14:21;;;;;;;10.25;7.68;;;20.60;83.90;;;;;;5074548;28;20059;-81
2021/08/23 11:16:54;;;;;;;10.65;7.80;;;20.70;83.30;;;;;;5074790;28;20025;-82
2021/08/23 11:19:24;;;;;;;11.70;7.40;;;20.80;83.00;;;;;;5074888;28;20377;-81
2021/08/23 11:21:58;;;;;;;10.57;7.50;;;21.00;82.20;;;;;;5074682;28;20024;-82
2021/08/23 11:24:30;;;;;;;12.23;7.20;;;21.00;81.00;;;;;;5074714;28;20033;-81
2021/08/23 11:27:01;;;;;;;10.23;7.13;;;21.10;81.30;;;;;;5074408;28;20029;-81
2021/08/23 11:29:38;;;;;;;10.00;7.63;;;21.10;81.30;;;;;;5040121;28;20481;-82
2021/08/23 11:32:07;;;;;;;9.50;7.38;;;21.20;80.50;;;;;;5056230;28;20033;-82
2021/08/23 11:34:33;;;;;;;11.07;7.32;;;21.20;81.40;;;;;;5073905;28;20032;-81
2021/08/23 11:37:01;;;;;;;14.35;8.35;;;21.30;81.60;;;;;;5073989;28;20025;-82
2021/08/23 11:39:31;;;;;;;9.83;7.57;;;21.40;80.90;;;;;;5074136;28;20017;-81
2021/08/23 11:42:03;;;;;;;10.75;7.80;;;21.40;79.10;;;;;;5073221;28;20277;-81
2021/08/23 11:44:29;;;;;;;9.85;7.70;;;21.40;79.50;;;;;;5073151;28;20032;-81
2021/08/23 11:47:02;;;;;;;16.27;8.40;;;21.40;80.00;;;;;;5054878;28;20056;-81
2021/08/23 11:49:34;;;;;;;8.20;7.22;;;21.40;80.40;;;;;;5073274;28;20020;-81
2021/08/23 11:52:17;;;;;;;12.15;8.27;;;21.50;81.10;;;;;;5073164;28;20473;-81
2021/08/23 11:54:51;;;;;;;11.85;7.70;;;21.50;81.30;;;;;;5055032;28;20041;-81
2021/08/23 11:57:22;;;;;;;10.57;7.65;;;21.50;81.80;;;;;;5055081;28;20052;-81
2021/08/23 11:59:59;;;;;;;9.63;7.47;;;21.40;80.60;;;;;;5056387;28;20035;-82
2021/08/23 12:02:28;;;;;;;8.45;6.50;;;21.30;80.30;;;;;;5073914;28;20021;-81
2021/08/23 12:04:53;;;;;;;14.63;7.65;;;21.30;80.50;;;;;;5056031;28;20024;-81
2021/08/23 12:07:19;;;;;;;12.20;8.02;;;21.40;80.40;;;;;;5056015;28;20035;-81
2021/08/23 12:09:45;;;;;;;10.52;7.75;;;21.30;80.10;;;;;;5039431;28;20123;-81
2021/08/23 12:12:21;;;;;;;8.50;7.20;;;21.40;80.20;;;;;;5056135;28;20032;-82
2021/08/23 12:14:57;;;;;;;10.40;7.88;;;21.50;80.70;;;;;;5073310;28;20538;-82
2021/08/23 12:17:30;;;;;;;8.90;7.63;;;21.50;78.80;;;;;;5054318;28;20037;-82
2021/08/23 12:20:04;;;;;;;10.65;7.65;;;21.50;79.90;;;;;;5072695;28;20052;-81
2021/08/23 12:22:29;;;;;;;13.63;6.90;;;21.50;79.70;;;;;;5072576;28;20446;-81
2021/08/23 12:24:57;;;;;;;12.00;6.50;;;21.50;79.00;;;;;;5054493;28;20120;-80
2021/08/23 12:27:23;;;;;;;11.93;6.32;;;21.50;78.40;;;;;;5073260;28;20111;-81
2021/08/23 12:29:49;;;;;;;7.72;6.00;;;21.60;78.80;;;;;;5055328;28;20078;-81
2021/08/23 12:32:15;;;;;;;6.90;6.18;;;21.70;78.60;;;;;;5073165;28;20036;-82